sensor_id;sensor_type;location;lat;lon;timestamp;P1;durP1;ratioP1;P2;durP2;ratioP2
4210;SDS011;2119;48.828;12.396;2023-06-22T00:01:28;4.63;;;4.20;;
4210;SDS011;2119;48.828;12.396;2023-06-22T00:06:29;5.63;;;5.23;;
4210;SDS011;2119;48.828;12.396;2023-06-22T00:11:29;4.83;;;4.33;;
4210;SDS011;2119;48.828;12.396;2023-06-22T00:16:36;5.03;;;4.53;;
4210;SDS011;2119;48.828;12.396;2023-06-22T00:21:42;5.43;;;4.93;;
4210;SDS011;2119;48.828;12.396;2023-06-22T00:26:45;5.20;;;3.90;;
4210;SDS011;2119;48.828;12.396;2023-06-22T00:31:45;6.40;;;3.83;;
4210;SDS011;2119;48.828;12.396;2023-06-22T00:36:45;12.30;;;4.33;;
4210;SDS011;2119;48.828;12.396;2023-06-22T00:41:47;4.90;;;4.60;;
4210;SDS011;2119;48.828;12.396;2023-06-22T00:46:47;4.13;;;3.83;;
4210;SDS011;2119;48.828;12.396;2023-06-22T00:51:48;4.30;;;3.90;;
4210;SDS011;2119;48.828;12.396;2023-06-22T00:56:48;4.40;;;3.80;;
4210;SDS011;2119;48.828;12.396;2023-06-22T01:01:49;4.90;;;3.93;;
4210;SDS011;2119;48.828;12.396;2023-06-22T01:06:57;7.10;;;4.00;;
4210;SDS011;2119;48.828;12.396;2023-06-22T01:12:02;5.40;;;3.50;;
4210;SDS011;2119;48.828;12.396;2023-06-22T01:17:04;4.90;;;4.40;;
4210;SDS011;2119;48.828;12.396;2023-06-22T01:22:05;8.03;;;5.10;;
4210;SDS011;2119;48.828;12.396;2023-06-22T01:32:29;8.90;;;5.30;;
4210;SDS011;2119;48.828;12.396;2023-06-22T01:37:30;6.63;;;5.90;;
4210;SDS011;2119;48.828;12.396;2023-06-22T01:42:33;7.27;;;5.70;;
4210;SDS011;2119;48.828;12.396;2023-06-22T01:47:34;11.20;;;6.17;;
4210;SDS011;2119;48.828;12.396;2023-06-22T01:52:34;10.63;;;6.70;;
4210;SDS011;2119;48.828;12.396;2023-06-22T01:57:34;9.30;;;6.90;;
4210;SDS011;2119;48.828;12.396;2023-06-22T02:08:17;9.60;;;5.43;;
4210;SDS011;2119;48.828;12.396;2023-06-22T02:13:18;7.00;;;5.80;;
4210;SDS011;2119;48.828;12.396;2023-06-22T02:18:18;9.03;;;6.80;;
4210;SDS011;2119;48.828;12.396;2023-06-22T02:23:20;7.80;;;7.10;;
4210;SDS011;2119;48.828;12.396;2023-06-22T02:28:20;11.85;;;9.25;;
4210;SDS011;2119;48.828;12.396;2023-06-22T02:33:20;25.00;;;11.00;;
4210;SDS011;2119;48.828;12.396;2023-06-22T02:38:21;12.10;;;10.90;;
4210;SDS011;2119;48.828;12.396;2023-06-22T02:43:21;11.95;;;10.75;;
4210;SDS011;2119;48.828;12.396;2023-06-22T02:48:22;12.50;;;10.83;;
4210;SDS011;2119;48.828;12.396;2023-06-22T02:53:22;12.93;;;11.60;;
4210;SDS011;2119;48.828;12.396;2023-06-22T02:58:23;13.30;;;11.90;;
4210;SDS011;2119;48.828;12.396;2023-06-22T03:03:24;14.20;;;11.47;;
4210;SDS011;2119;48.828;12.396;2023-06-22T03:08:27;13.93;;;11.70;;
4210;SDS011;2119;48.828;12.396;2023-06-22T03:13:28;10.93;;;9.93;;
4210;SDS011;2119;48.828;12.396;2023-06-22T03:18:29;12.10;;;10.80;;
4210;SDS011;2119;48.828;12.396;2023-06-22T03:23:30;17.63;;;11.03;;
4210;SDS011;2119;48.828;12.396;2023-06-22T03:28:30;11.88;;;10.68;;
4210;SDS011;2119;48.828;12.396;2023-06-22T03:33:30;14.47;;;9.93;;
4210;SDS011;2119;48.828;12.396;2023-06-22T03:38:31;9.52;;;8.73;;
4210;SDS011;2119;48.828;12.396;2023-06-22T03:43:31;9.47;;;8.43;;
4210;SDS011;2119;48.828;12.396;2023-06-22T03:48:31;13.15;;;11.00;;
4210;SDS011;2119;48.828;12.396;2023-06-22T03:53:32;11.50;;;10.23;;
4210;SDS011;2119;48.828;12.396;2023-06-22T03:58:32;11.52;;;10.43;;
4210;SDS011;2119;48.828;12.396;2023-06-22T04:03:33;11.50;;;8.83;;
4210;SDS011;2119;48.828;12.396;2023-06-22T04:08:33;10.90;;;9.83;;
4210;SDS011;2119;48.828;12.396;2023-06-22T04:13:34;10.20;;;9.30;;
4210;SDS011;2119;48.828;12.396;2023-06-22T04:18:35;10.60;;;9.57;;
4210;SDS011;2119;48.828;12.396;2023-06-22T04:23:36;9.87;;;9.03;;
4210;SDS011;2119;48.828;12.396;2023-06-22T04:28:36;10.07;;;9.10;;
4210;SDS011;2119;48.828;12.396;2023-06-22T04:33:37;9.20;;;8.30;;
4210;SDS011;2119;48.828;12.396;2023-06-22T04:38:40;10.43;;;9.57;;
4210;SDS011;2119;48.828;12.396;2023-06-22T04:43:42;8.17;;;7.50;;
4210;SDS011;2119;48.828;12.396;2023-06-22T04:48:42;11.10;;;10.10;;
4210;SDS011;2119;48.828;12.396;2023-06-22T04:53:42;9.70;;;8.90;;
4210;SDS011;2119;48.828;12.396;2023-06-22T04:58:43;10.97;;;9.47;;
4210;SDS011;2119;48.828;12.396;2023-06-22T05:09:11;10.37;;;9.27;;
4210;SDS011;2119;48.828;12.396;2023-06-22T05:14:13;11.47;;;10.37;;
4210;SDS011;2119;48.828;12.396;2023-06-22T05:19:13;10.70;;;9.60;;
4210;SDS011;2119;48.828;12.396;2023-06-22T05:24:14;13.77;;;12.47;;
4210;SDS011;2119;48.828;12.396;2023-06-22T05:29:14;11.23;;;9.23;;
4210;SDS011;2119;48.828;12.396;2023-06-22T05:34:14;12.83;;;8.90;;
4210;SDS011;2119;48.828;12.396;2023-06-22T05:39:14;9.63;;;8.90;;
4210;SDS011;2119;48.828;12.396;2023-06-22T05:44:15;10.27;;;9.17;;
4210;SDS011;2119;48.828;12.396;2023-06-22T05:49:16;11.90;;;9.70;;
4210;SDS011;2119;48.828;12.396;2023-06-22T05:54:16;9.43;;;8.53;;
4210;SDS011;2119;48.828;12.396;2023-06-22T05:59:18;11.00;;;9.37;;
4210;SDS011;2119;48.828;12.396;2023-06-22T06:04:18;11.90;;;10.20;;
4210;SDS011;2119;48.828;12.396;2023-06-22T06:09:18;11.80;;;9.67;;
4210;SDS011;2119;48.828;12.396;2023-06-22T06:14:18;12.30;;;8.70;;
4210;SDS011;2119;48.828;12.396;2023-06-22T06:19:20;11.30;;;9.47;;
4210;SDS011;2119;48.828;12.396;2023-06-22T06:24:20;11.10;;;9.60;;
4210;SDS011;2119;48.828;12.396;2023-06-22T06:29:20;12.00;;;9.43;;
4210;SDS011;2119;48.828;12.396;2023-06-22T06:34:20;10.37;;;9.43;;
4210;SDS011;2119;48.828;12.396;2023-06-22T06:39:21;10.57;;;9.40;;
4210;SDS011;2119;48.828;12.396;2023-06-22T06:44:21;10.27;;;9.13;;
4210;SDS011;2119;48.828;12.396;2023-06-22T06:49:21;11.83;;;9.13;;
4210;SDS011;2119;48.828;12.396;2023-06-22T06:54:22;9.43;;;8.53;;
4210;SDS011;2119;48.828;12.396;2023-06-22T06:59:22;9.57;;;8.73;;
4210;SDS011;2119;48.828;12.396;2023-06-22T07:04:22;9.97;;;7.50;;
4210;SDS011;2119;48.828;12.396;2023-06-22T07:09:22;10.80;;;7.43;;
4210;SDS011;2119;48.828;12.396;2023-06-22T07:14:23;7.93;;;6.90;;
4210;SDS011;2119;48.828;12.396;2023-06-22T07:19:27;7.47;;;6.77;;
4210;SDS011;2119;48.828;12.396;2023-06-22T07:24:27;6.80;;;6.20;;
4210;SDS011;2119;48.828;12.396;2023-06-22T07:29:27;8.10;;;7.37;;
4210;SDS011;2119;48.828;12.396;2023-06-22T07:34:28;7.25;;;6.65;;
4210;SDS011;2119;48.828;12.396;2023-06-22T07:39:28;11.80;;;6.77;;
4210;SDS011;2119;48.828;12.396;2023-06-22T07:44:32;7.63;;;6.87;;
4210;SDS011;2119;48.828;12.396;2023-06-22T07:49:35;7.30;;;6.80;;
4210;SDS011;2119;48.828;12.396;2023-06-22T07:54:35;7.10;;;6.60;;
4210;SDS011;2119;48.828;12.396;2023-06-22T07:59:36;7.17;;;6.33;;
4210;SDS011;2119;48.828;12.396;2023-06-22T08:04:41;7.10;;;6.60;;
4210;SDS011;2119;48.828;12.396;2023-06-22T08:09:46;11.27;;;6.70;;
4210;SDS011;2119;48.828;12.396;2023-06-22T08:14:52;6.77;;;6.37;;
4210;SDS011;2119;48.828;12.396;2023-06-22T08:19:52;7.30;;;6.57;;
4210;SDS011;2119;48.828;12.396;2023-06-22T08:24:53;10.20;;;7.73;;
4210;SDS011;2119;48.828;12.396;2023-06-22T08:29:53;7.60;;;6.90;;
4210;SDS011;2119;48.828;12.396;2023-06-22T08:34:58;6.57;;;6.07;;
4210;SDS011;2119;48.828;12.396;2023-06-22T08:39:58;7.17;;;6.47;;
4210;SDS011;2119;48.828;12.396;2023-06-22T08:44:59;7.50;;;6.70;;
4210;SDS011;2119;48.828;12.396;2023-06-22T08:49:59;10.23;;;6.57;;
4210;SDS011;2119;48.828;12.396;2023-06-22T08:55:02;10.90;;;6.60;;
4210;SDS011;2119;48.828;12.396;2023-06-22T09:00:05;8.00;;;6.73;;
4210;SDS011;2119;48.828;12.396;2023-06-22T09:05:05;10.83;;;7.00;;
4210;SDS011;2119;48.828;12.396;2023-06-22T09:10:06;7.27;;;6.57;;
4210;SDS011;2119;48.828;12.396;2023-06-22T09:15:06;6.70;;;6.20;;
4210;SDS011;2119;48.828;12.396;2023-06-22T09:20:07;6.73;;;6.00;;
4210;SDS011;2119;48.828;12.396;2023-06-22T09:25:10;6.37;;;5.87;;
4210;SDS011;2119;48.828;12.396;2023-06-22T09:30:11;6.80;;;6.20;;
4210;SDS011;2119;48.828;12.396;2023-06-22T09:35:11;7.10;;;6.57;;
4210;SDS011;2119;48.828;12.396;2023-06-22T09:40:13;6.40;;;5.90;;
4210;SDS011;2119;48.828;12.396;2023-06-22T09:45:16;6.60;;;6.07;;
4210;SDS011;2119;48.828;12.396;2023-06-22T09:50:17;10.83;;;6.60;;
4210;SDS011;2119;48.828;12.396;2023-06-22T09:55:17;7.33;;;6.63;;
4210;SDS011;2119;48.828;12.396;2023-06-22T10:00:17;8.03;;;6.37;;
4210;SDS011;2119;48.828;12.396;2023-06-22T10:05:19;7.67;;;7.07;;
4210;SDS011;2119;48.828;12.396;2023-06-22T10:10:19;7.67;;;6.77;;
4210;SDS011;2119;48.828;12.396;2023-06-22T10:15:19;6.70;;;6.13;;
4210;SDS011;2119;48.828;12.396;2023-06-22T10:20:21;8.40;;;7.60;;
4210;SDS011;2119;48.828;12.396;2023-06-22T10:25:24;6.23;;;5.77;;
4210;SDS011;2119;48.828;12.396;2023-06-22T10:30:24;7.13;;;6.53;;
4210;SDS011;2119;48.828;12.396;2023-06-22T10:35:24;7.80;;;7.00;;
4210;SDS011;2119;48.828;12.396;2023-06-22T10:40:25;9.17;;;6.73;;
4210;SDS011;2119;48.828;12.396;2023-06-22T10:45:25;7.57;;;6.77;;
4210;SDS011;2119;48.828;12.396;2023-06-22T10:50:25;8.90;;;7.33;;
4210;SDS011;2119;48.828;12.396;2023-06-22T10:55:25;7.70;;;7.00;;
4210;SDS011;2119;48.828;12.396;2023-06-22T11:00:26;7.33;;;6.50;;
4210;SDS011;2119;48.828;12.396;2023-06-22T11:05:26;10.20;;;7.33;;
4210;SDS011;2119;48.828;12.396;2023-06-22T11:10:26;7.10;;;6.40;;
4210;SDS011;2119;48.828;12.396;2023-06-22T11:15:27;7.80;;;6.77;;
4210;SDS011;2119;48.828;12.396;2023-06-22T11:20:27;6.60;;;5.97;;
4210;SDS011;2119;48.828;12.396;2023-06-22T11:25:27;5.83;;;5.23;;
4210;SDS011;2119;48.828;12.396;2023-06-22T11:30:28;6.83;;;6.23;;
4210;SDS011;2119;48.828;12.396;2023-06-22T11:35:29;6.70;;;6.10;;
4210;SDS011;2119;48.828;12.396;2023-06-22T11:40:29;8.73;;;6.20;;
4210;SDS011;2119;48.828;12.396;2023-06-22T11:45:30;12.67;;;5.90;;
4210;SDS011;2119;48.828;12.396;2023-06-22T11:50:30;7.63;;;6.30;;
4210;SDS011;2119;48.828;12.396;2023-06-22T11:55:34;5.80;;;5.20;;
4210;SDS011;2119;48.828;12.396;2023-06-22T12:00:34;9.43;;;6.33;;
4210;SDS011;2119;48.828;12.396;2023-06-22T12:05:34;10.83;;;6.70;;
4210;SDS011;2119;48.828;12.396;2023-06-22T12:10:35;9.47;;;6.33;;
4210;SDS011;2119;48.828;12.396;2023-06-22T12:15:35;7.20;;;5.90;;
4210;SDS011;2119;48.828;12.396;2023-06-22T12:20:35;6.83;;;6.13;;
4210;SDS011;2119;48.828;12.396;2023-06-22T12:25:36;7.90;;;5.60;;
4210;SDS011;2119;48.828;12.396;2023-06-22T12:30:36;6.10;;;5.50;;
4210;SDS011;2119;48.828;12.396;2023-06-22T12:35:36;9.03;;;6.30;;
4210;SDS011;2119;48.828;12.396;2023-06-22T12:40:36;15.20;;;6.87;;
4210;SDS011;2119;48.828;12.396;2023-06-22T12:45:37;7.37;;;6.03;;
4210;SDS011;2119;48.828;12.396;2023-06-22T12:50:37;7.20;;;5.70;;
4210;SDS011;2119;48.828;12.396;2023-06-22T12:55:37;6.63;;;5.63;;
4210;SDS011;2119;48.828;12.396;2023-06-22T13:00:38;14.00;;;6.90;;
4210;SDS011;2119;48.828;12.396;2023-06-22T13:05:38;8.60;;;5.40;;
4210;SDS011;2119;48.828;12.396;2023-06-22T13:10:38;7.70;;;5.33;;
4210;SDS011;2119;48.828;12.396;2023-06-22T13:15:39;8.73;;;6.07;;
4210;SDS011;2119;48.828;12.396;2023-06-22T13:20:39;9.13;;;5.67;;
4210;SDS011;2119;48.828;12.396;2023-06-22T13:25:39;11.60;;;5.90;;
4210;SDS011;2119;48.828;12.396;2023-06-22T13:30:42;9.97;;;6.10;;
4210;SDS011;2119;48.828;12.396;2023-06-22T13:35:43;7.43;;;4.90;;
4210;SDS011;2119;48.828;12.396;2023-06-22T13:40:43;9.60;;;5.53;;
4210;SDS011;2119;48.828;12.396;2023-06-22T13:51:13;6.60;;;5.40;;
4210;SDS011;2119;48.828;12.396;2023-06-22T13:56:13;8.03;;;5.87;;
4210;SDS011;2119;48.828;12.396;2023-06-22T14:01:13;8.70;;;6.40;;
4210;SDS011;2119;48.828;12.396;2023-06-22T14:06:15;8.47;;;5.87;;
4210;SDS011;2119;48.828;12.396;2023-06-22T14:11:15;10.20;;;6.30;;
4210;SDS011;2119;48.828;12.396;2023-06-22T14:16:15;16.00;;;7.23;;
4210;SDS011;2119;48.828;12.396;2023-06-22T14:21:16;6.97;;;6.27;;
4210;SDS011;2119;48.828;12.396;2023-06-22T14:26:16;9.57;;;6.33;;
4210;SDS011;2119;48.828;12.396;2023-06-22T14:31:17;7.97;;;7.07;;
4210;SDS011;2119;48.828;12.396;2023-06-22T14:36:18;13.87;;;7.43;;
4210;SDS011;2119;48.828;12.396;2023-06-22T14:41:19;13.37;;;6.73;;
4210;SDS011;2119;48.828;12.396;2023-06-22T14:46:19;7.50;;;6.57;;
4210;SDS011;2119;48.828;12.396;2023-06-22T14:51:20;8.63;;;6.97;;
4210;SDS011;2119;48.828;12.396;2023-06-22T14:56:20;9.43;;;6.90;;
4210;SDS011;2119;48.828;12.396;2023-06-22T15:01:20;12.43;;;6.27;;
4210;SDS011;2119;48.828;12.396;2023-06-22T15:06:21;7.83;;;7.10;;
4210;SDS011;2119;48.828;12.396;2023-06-22T15:11:22;13.30;;;6.53;;
4210;SDS011;2119;48.828;12.396;2023-06-22T15:16:22;10.80;;;6.97;;
4210;SDS011;2119;48.828;12.396;2023-06-22T15:21:23;7.80;;;7.00;;
4210;SDS011;2119;48.828;12.396;2023-06-22T15:26:23;10.10;;;6.00;;
4210;SDS011;2119;48.828;12.396;2023-06-22T15:31:26;10.33;;;6.60;;
4210;SDS011;2119;48.828;12.396;2023-06-22T15:36:26;9.07;;;6.07;;
4210;SDS011;2119;48.828;12.396;2023-06-22T15:41:26;6.57;;;5.80;;
4210;SDS011;2119;48.828;12.396;2023-06-22T15:46:28;8.97;;;6.43;;
4210;SDS011;2119;48.828;12.396;2023-06-22T15:51:28;8.73;;;6.93;;
4210;SDS011;2119;48.828;12.396;2023-06-22T15:56:28;19.23;;;7.17;;
4210;SDS011;2119;48.828;12.396;2023-06-22T16:01:29;11.97;;;7.17;;
4210;SDS011;2119;48.828;12.396;2023-06-22T16:06:29;12.13;;;6.47;;
4210;SDS011;2119;48.828;12.396;2023-06-22T16:11:29;10.80;;;6.63;;
4210;SDS011;2119;48.828;12.396;2023-06-22T16:16:30;12.33;;;5.80;;
4210;SDS011;2119;48.828;12.396;2023-06-22T16:21:30;9.57;;;6.73;;
4210;SDS011;2119;48.828;12.396;2023-06-22T16:26:36;14.50;;;6.67;;
4210;SDS011;2119;48.828;12.396;2023-06-22T16:31:37;12.50;;;6.50;;
4210;SDS011;2119;48.828;12.396;2023-06-22T16:36:38;9.03;;;6.23;;
4210;SDS011;2119;48.828;12.396;2023-06-22T16:41:38;10.97;;;6.30;;
4210;SDS011;2119;48.828;12.396;2023-06-22T16:46:38;12.23;;;6.77;;
4210;SDS011;2119;48.828;12.396;2023-06-22T16:51:40;19.33;;;7.60;;
4210;SDS011;2119;48.828;12.396;2023-06-22T16:56:40;7.10;;;6.27;;
4210;SDS011;2119;48.828;12.396;2023-06-22T17:01:48;13.77;;;7.73;;
4210;SDS011;2119;48.828;12.396;2023-06-22T17:06:57;10.53;;;6.80;;
4210;SDS011;2119;48.828;12.396;2023-06-22T17:11:59;12.87;;;6.80;;
4210;SDS011;2119;48.828;12.396;2023-06-22T17:16:59;11.17;;;7.23;;
4210;SDS011;2119;48.828;12.396;2023-06-22T17:22:00;9.33;;;7.40;;
4210;SDS011;2119;48.828;12.396;2023-06-22T17:27:01;8.33;;;7.10;;
4210;SDS011;2119;48.828;12.396;2023-06-22T17:32:02;8.63;;;6.50;;
4210;SDS011;2119;48.828;12.396;2023-06-22T17:37:03;9.40;;;7.37;;
4210;SDS011;2119;48.828;12.396;2023-06-22T17:42:03;9.53;;;7.40;;
4210;SDS011;2119;48.828;12.396;2023-06-22T17:47:06;12.03;;;6.63;;
4210;SDS011;2119;48.828;12.396;2023-06-22T17:52:15;11.20;;;6.73;;
4210;SDS011;2119;48.828;12.396;2023-06-22T17:57:18;7.37;;;6.60;;
4210;SDS011;2119;48.828;12.396;2023-06-22T18:02:23;10.87;;;7.57;;
4210;SDS011;2119;48.828;12.396;2023-06-22T18:07:23;7.60;;;6.67;;
4210;SDS011;2119;48.828;12.396;2023-06-22T18:12:26;9.50;;;7.30;;
4210;SDS011;2119;48.828;12.396;2023-06-22T18:17:27;15.80;;;8.07;;
4210;SDS011;2119;48.828;12.396;2023-06-22T18:22:27;10.43;;;7.37;;
4210;SDS011;2119;48.828;12.396;2023-06-22T18:27:28;11.57;;;8.43;;
4210;SDS011;2119;48.828;12.396;2023-06-22T18:32:30;13.40;;;9.47;;
4210;SDS011;2119;48.828;12.396;2023-06-22T18:37:31;11.17;;;7.80;;
4210;SDS011;2119;48.828;12.396;2023-06-22T18:42:32;11.27;;;8.50;;
4210;SDS011;2119;48.828;12.396;2023-06-22T18:47:32;9.03;;;8.07;;
4210;SDS011;2119;48.828;12.396;2023-06-22T18:52:33;18.07;;;9.20;;
4210;SDS011;2119;48.828;12.396;2023-06-22T18:57:35;12.27;;;9.10;;
4210;SDS011;2119;48.828;12.396;2023-06-22T19:02:46;14.00;;;9.10;;
4210;SDS011;2119;48.828;12.396;2023-06-22T19:13:44;14.30;;;7.43;;
4210;SDS011;2119;48.828;12.396;2023-06-22T19:18:22;13.60;;;6.73;;
4210;SDS011;2119;48.828;12.396;2023-06-22T19:23:31;13.77;;;5.43;;
4210;SDS011;2119;48.828;12.396;2023-06-22T19:28:33;7.43;;;4.80;;
4210;SDS011;2119;48.828;12.396;2023-06-22T19:33:33;14.97;;;6.10;;
4210;SDS011;2119;48.828;12.396;2023-06-22T19:38:34;14.70;;;6.63;;
4210;SDS011;2119;48.828;12.396;2023-06-22T19:43:34;12.67;;;7.90;;
4210;SDS011;2119;48.828;12.396;2023-06-22T19:48:35;14.77;;;6.93;;
4210;SDS011;2119;48.828;12.396;2023-06-22T19:53:45;11.40;;;7.33;;
4210;SDS011;2119;48.828;12.396;2023-06-22T19:58:45;14.93;;;7.30;;
4210;SDS011;2119;48.828;12.396;2023-06-22T20:03:45;14.82;;;6.53;;
4210;SDS011;2119;48.828;12.396;2023-06-22T20:08:49;17.93;;;7.97;;
4210;SDS011;2119;48.828;12.396;2023-06-22T20:13:51;13.17;;;7.33;;
4210;SDS011;2119;48.828;12.396;2023-06-22T20:19:04;11.03;;;5.23;;
4210;SDS011;2119;48.828;12.396;2023-06-22T20:29:24;13.70;;;6.70;;
4210;SDS011;2119;48.828;12.396;2023-06-22T20:34:27;18.10;;;7.30;;
4210;SDS011;2119;48.828;12.396;2023-06-22T20:39:27;14.83;;;5.93;;
4210;SDS011;2119;48.828;12.396;2023-06-22T20:44:27;14.07;;;6.30;;
4210;SDS011;2119;48.828;12.396;2023-06-22T20:49:27;12.60;;;6.00;;
4210;SDS011;2119;48.828;12.396;2023-06-22T20:54:27;12.60;;;5.90;;
4210;SDS011;2119;48.828;12.396;2023-06-22T20:59:28;10.70;;;5.53;;
4210;SDS011;2119;48.828;12.396;2023-06-22T21:04:28;10.03;;;6.80;;
4210;SDS011;2119;48.828;12.396;2023-06-22T21:09:28;12.80;;;5.80;;
4210;SDS011;2119;48.828;12.396;2023-06-22T21:14:29;7.13;;;4.90;;
4210;SDS011;2119;48.828;12.396;2023-06-22T21:19:29;5.57;;;3.90;;
4210;SDS011;2119;48.828;12.396;2023-06-22T21:24:29;9.57;;;4.55;;
4210;SDS011;2119;48.828;12.396;2023-06-22T21:29:30;5.33;;;4.50;;
4210;SDS011;2119;48.828;12.396;2023-06-22T21:34:30;8.27;;;4.97;;
4210;SDS011;2119;48.828;12.396;2023-06-22T21:39:30;16.97;;;4.63;;
4210;SDS011;2119;48.828;12.396;2023-06-22T21:44:30;10.27;;;4.93;;
4210;SDS011;2119;48.828;12.396;2023-06-22T21:49:31;4.90;;;4.10;;
4210;SDS011;2119;48.828;12.396;2023-06-22T21:54:31;7.93;;;3.83;;
4210;SDS011;2119;48.828;12.396;2023-06-22T21:59:31;8.20;;;4.33;;
4210;SDS011;2119;48.828;12.396;2023-06-22T22:04:31;5.53;;;3.90;;
4210;SDS011;2119;48.828;12.396;2023-06-22T22:09:32;5.30;;;3.70;;
4210;SDS011;2119;48.828;12.396;2023-06-22T22:14:33;6.80;;;4.70;;
4210;SDS011;2119;48.828;12.396;2023-06-22T22:19:34;9.10;;;3.83;;
4210;SDS011;2119;48.828;12.396;2023-06-22T22:24:34;5.57;;;4.00;;
4210;SDS011;2119;48.828;12.396;2023-06-22T22:29:34;7.70;;;3.93;;
4210;SDS011;2119;48.828;12.396;2023-06-22T22:34:36;3.70;;;3.07;;
4210;SDS011;2119;48.828;12.396;2023-06-22T22:39:36;6.57;;;3.37;;
4210;SDS011;2119;48.828;12.396;2023-06-22T22:44:39;7.33;;;3.67;;
4210;SDS011;2119;48.828;12.396;2023-06-22T22:49:40;5.50;;;3.33;;
4210;SDS011;2119;48.828;12.396;2023-06-22T22:54:42;3.93;;;2.97;;
4210;SDS011;2119;48.828;12.396;2023-06-22T22:59:44;5.47;;;3.73;;
4210;SDS011;2119;48.828;12.396;2023-06-22T23:04:44;7.07;;;2.87;;
4210;SDS011;2119;48.828;12.396;2023-06-22T23:09:44;6.30;;;3.45;;
4210;SDS011;2119;48.828;12.396;2023-06-22T23:14:46;5.17;;;3.43;;
4210;SDS011;2119;48.828;12.396;2023-06-22T23:19:48;5.33;;;3.90;;
4210;SDS011;2119;48.828;12.396;2023-06-22T23:24:49;3.70;;;3.27;;
4210;SDS011;2119;48.828;12.396;2023-06-22T23:29:49;4.87;;;3.63;;
4210;SDS011;2119;48.828;12.396;2023-06-22T23:34:50;3.70;;;3.30;;
4210;SDS011;2119;48.828;12.396;2023-06-22T23:39:51;8.23;;;3.95;;
4210;SDS011;2119;48.828;12.396;2023-06-22T23:44:51;5.97;;;5.20;;
4210;SDS011;2119;48.828;12.396;2023-06-22T23:49:55;6.10;;;4.80;;
4210;SDS011;2119;48.828;12.396;2023-06-22T23:54:56;4.93;;;4.53;;
4210;SDS011;2119;48.828;12.396;2023-06-22T23:59:57;5.60;;;5.07;;
